FYWH/WDH METAR and TAF weather

Enter ICAO airport designator
Station Type Date Time Source
FYWH METAR 2024/06/14 20:00 UTC NOAA

FYWH 142000Z AUTO 26004KT //// // ////// 05/M11 Q1028


Station Type Date Time Source
FYWH Decoded METAR 2024/06/14 20:00 UTC NOAA

J. G. Strijdom, Namibia (FYWH) 22-29S 017-28E 1700M
Jun 14, 2024 - 04:00 PM EDT / 2024.06.14 2000 UTC
Wind: from the W (260 degrees) at 5 MPH (4 KT):0
Temperature: 41 F (5 C)
Dew Point: 12 F (-11 C)
Relative Humidity: 30%
Pressure (altimeter): 30.36 in. Hg (1028 hPa)
ob: FYWH 142000Z AUTO 26004KT //// // ////// 05/M11 Q1028
cycle: 20

Station Type Date Time Source
FYWH TAF 2024/06/14 18:48 UTC NOAA